createdAt,value
2022-11-05T00:03:13.454Z,17.26
2022-11-05T00:10:04.794Z,17.23
2022-11-05T00:16:52.766Z,17.17
2022-11-05T00:23:50.679Z,17.26
2022-11-05T00:30:36.087Z,17.24
2022-11-05T00:37:24.079Z,17.22
2022-11-05T00:44:21.927Z,17.23
2022-11-05T00:51:07.579Z,17.24
2022-11-05T00:57:55.740Z,17.09
2022-11-05T01:04:41.097Z,17.23
2022-11-05T01:18:51.573Z,17.18
2022-11-05T01:25:36.951Z,17.16
2022-11-05T01:32:22.306Z,17.14
2022-11-05T01:39:10.302Z,17.08
2022-11-05T01:45:59.690Z,17.07
2022-11-05T01:52:45.245Z,17.03
2022-11-05T01:59:39.098Z,16.95
2022-11-05T02:06:25.353Z,16.90
2022-11-05T02:13:11.116Z,16.87
2022-11-05T02:20:35.477Z,16.81
2022-11-05T02:27:33.836Z,16.76
2022-11-05T02:34:31.526Z,16.71
2022-11-05T02:41:27.272Z,16.66
2022-11-05T02:48:23.996Z,16.64
2022-11-05T02:55:22.470Z,16.66
2022-11-05T03:02:09.473Z,16.71
2022-11-05T03:09:15.217Z,16.72
2022-11-05T03:16:09.314Z,16.71
2022-11-05T03:23:03.830Z,16.68
2022-11-05T03:29:54.970Z,16.70
2022-11-05T03:36:49.180Z,16.74
2022-11-05T03:43:40.024Z,16.77
2022-11-05T04:04:15.690Z,16.76
2022-11-05T04:11:13.644Z,16.81
2022-11-05T04:18:00.135Z,16.83
2022-11-05T04:24:49.236Z,16.85
2022-11-05T04:31:34.564Z,16.74
2022-11-05T04:38:22.234Z,16.87
2022-11-05T04:45:10.870Z,16.56
2022-11-05T04:51:56.237Z,16.84
2022-11-05T04:58:45.618Z,16.77
2022-11-05T05:05:33.743Z,16.72
2022-11-05T05:12:19.207Z,16.76
2022-11-05T05:19:04.567Z,16.78
2022-11-05T05:25:52.671Z,16.73
2022-11-05T05:32:38.030Z,16.72
2022-11-05T05:39:23.368Z,16.64
2022-11-05T05:46:15.066Z,15.88
2022-11-05T05:53:00.828Z,16.56
2022-11-05T05:59:46.143Z,16.53
2022-11-05T06:06:34.564Z,16.47
2022-11-05T06:13:19.940Z,16.40
2022-11-05T06:20:05.395Z,16.40
2022-11-05T06:26:53.608Z,15.74
2022-11-05T06:33:39.096Z,16.26
2022-11-05T06:40:24.435Z,16.27
2022-11-05T06:47:12.372Z,16.18
2022-11-05T06:53:58.533Z,16.28
2022-11-05T07:00:44.274Z,16.35
2022-11-05T07:07:32.539Z,16.35
2022-11-05T07:14:17.838Z,16.40
2022-11-05T07:21:03.163Z,16.40
2022-11-05T07:27:51.084Z,16.34
2022-11-05T07:34:36.495Z,16.25
2022-11-05T07:41:21.894Z,16.25
2022-11-05T07:48:10.589Z,16.27
2022-11-05T07:54:55.920Z,16.36
2022-11-05T08:01:41.464Z,16.32
2022-11-05T08:08:29.800Z,16.25
2022-11-05T08:15:15.149Z,16.21
2022-11-05T08:22:00.463Z,16.13
2022-11-05T08:28:48.673Z,16.11
2022-11-05T08:35:34.401Z,16.07
2022-11-05T08:42:19.805Z,16.01
2022-11-05T08:49:08.159Z,16.07
2022-11-05T08:55:53.523Z,16.17
2022-11-05T09:02:38.989Z,16.17
2022-11-05T09:09:26.945Z,16.18
2022-11-05T09:16:22.232Z,16.31
2022-11-05T09:23:07.745Z,16.48
2022-11-05T09:29:55.831Z,16.64
2022-11-05T09:36:41.380Z,16.76
2022-11-05T09:43:36.769Z,16.77
2022-11-05T09:50:35.658Z,16.77
2022-11-05T09:57:26.423Z,16.89
2022-11-05T10:04:22.535Z,17.07
2022-11-05T10:11:16.558Z,17.12
2022-11-05T10:18:07.916Z,17.15
2022-11-05T10:24:55.099Z,17.11
2022-11-05T10:31:43.772Z,16.94
2022-11-05T10:38:29.251Z,17.07
2022-11-05T10:45:30.435Z,16.98
2022-11-05T10:52:25.675Z,17.15
2022-11-05T10:59:26.497Z,16.93
2022-11-05T11:06:24.807Z,17.35
2022-11-05T11:13:23.714Z,17.43
2022-11-05T11:20:25.356Z,17.49
2022-11-05T11:27:16.615Z,17.58
2022-11-05T11:34:10.059Z,17.40
2022-11-05T11:41:08.914Z,17.41
2022-11-05T11:47:54.502Z,17.48
2022-11-05T11:54:43.158Z,17.43
2022-11-05T12:02:16.225Z,17.56
2022-11-05T12:09:11.014Z,17.63
2022-11-05T12:16:03.204Z,17.60
2022-11-05T12:23:14.984Z,17.70
2022-11-05T12:30:07.930Z,17.66
2022-11-05T12:37:27.260Z,17.68
2022-11-05T12:44:31.775Z,17.80
2022-11-05T12:51:41.428Z,17.83
2022-11-05T12:58:35.670Z,17.95
2022-11-05T13:05:28.874Z,17.98
2022-11-05T13:12:17.493Z,17.88
2022-11-05T13:19:16.164Z,17.99
2022-11-05T13:26:19.507Z,18.10
2022-11-05T13:33:09.106Z,18.06
2022-11-05T13:40:04.594Z,18.09
2022-11-05T13:47:20.618Z,18.13
2022-11-05T13:54:41.136Z,18.16
2022-11-05T14:01:52.854Z,17.53
2022-11-05T14:08:45.831Z,17.08
2022-11-05T14:15:33.375Z,16.71
2022-11-05T14:22:43.992Z,16.53
2022-11-05T14:29:41.798Z,16.49
2022-11-05T14:36:40.013Z,16.35
2022-11-05T14:43:30.824Z,16.50
2022-11-05T14:50:24.257Z,16.52
2022-11-05T14:57:09.769Z,16.79
2022-11-05T15:04:21.163Z,16.91
2022-11-05T15:11:16.425Z,16.45
2022-11-05T15:18:08.960Z,17.16
2022-11-05T15:24:57.795Z,17.21
2022-11-05T15:31:45.386Z,17.18
2022-11-05T15:38:36.722Z,17.16
2022-11-05T15:45:27.779Z,17.16
2022-11-05T15:52:16.715Z,17.19
2022-11-05T15:59:05.061Z,16.53
2022-11-05T16:05:53.806Z,17.08
2022-11-05T16:12:40.351Z,17.00
2022-11-05T16:19:40.965Z,16.71
2022-11-05T16:27:01.401Z,16.23
2022-11-05T16:33:48.123Z,15.94
2022-11-05T16:40:33.540Z,16.17
2022-11-05T16:47:22.395Z,15.96
2022-11-05T16:54:08.170Z,15.97
2022-11-05T17:01:08.089Z,15.60
2022-11-05T17:07:57.200Z,15.39
2022-11-05T17:14:43.069Z,15.40
2022-11-05T17:21:28.851Z,15.44
2022-11-05T17:28:18.696Z,15.44
2022-11-05T17:35:04.121Z,15.31
2022-11-05T17:41:50.060Z,15.09
2022-11-05T17:48:38.533Z,14.73
2022-11-05T17:55:23.995Z,14.35
2022-11-05T18:02:09.516Z,14.03
2022-11-05T18:08:58.032Z,13.92
2022-11-05T18:15:43.800Z,14.04
2022-11-05T18:22:29.644Z,13.97
2022-11-05T18:29:17.850Z,14.01
2022-11-05T18:36:03.361Z,13.72
2022-11-05T18:42:48.747Z,13.91
2022-11-05T18:49:36.769Z,13.96
2022-11-05T18:56:22.258Z,13.91
2022-11-05T19:03:08.727Z,14.15
2022-11-05T19:09:56.891Z,14.30
2022-11-05T19:16:42.374Z,14.42
2022-11-05T19:23:28.203Z,14.51
2022-11-05T19:30:16.859Z,14.38
2022-11-05T19:37:02.456Z,14.21
2022-11-05T19:43:48.256Z,14.03
2022-11-05T19:50:36.692Z,13.79
2022-11-05T19:57:22.341Z,13.52
2022-11-05T20:04:08.725Z,13.61
2022-11-05T20:10:59.920Z,13.57
2022-11-05T20:17:45.315Z,13.73
2022-11-05T20:24:30.751Z,13.69
2022-11-05T20:31:20.842Z,13.56
2022-11-05T20:38:06.246Z,13.59
2022-11-05T20:44:51.612Z,13.49
2022-11-05T20:51:39.639Z,13.31
2022-11-05T20:58:25.095Z,13.51
2022-11-05T21:05:11.706Z,13.51
2022-11-05T21:12:15.006Z,13.33
2022-11-05T21:19:00.356Z,13.07
2022-11-05T21:25:47.679Z,12.92
2022-11-05T21:32:35.544Z,13.03
2022-11-05T21:39:21.995Z,12.81
2022-11-05T21:46:08.275Z,12.75
2022-11-05T21:53:08.743Z,12.56
2022-11-05T21:59:56.472Z,12.53
2022-11-05T22:06:42.163Z,12.35
2022-11-05T22:13:30.146Z,12.31
2022-11-05T22:20:15.767Z,12.37
2022-11-05T22:27:02.291Z,12.32
2022-11-05T22:33:51.057Z,12.30
2022-11-05T22:40:36.402Z,12.30
2022-11-05T22:47:21.769Z,12.38
2022-11-05T22:54:11.099Z,12.27
2022-11-05T23:00:56.489Z,12.28
2022-11-05T23:07:54.680Z,12.27
2022-11-05T23:14:42.642Z,12.27
2022-11-05T23:21:40.732Z,12.23
2022-11-05T23:28:26.103Z,12.09
2022-11-05T23:35:15.044Z,12.09
2022-11-05T23:42:27.858Z,12.09
2022-11-05T23:49:13.261Z,12.09
2022-11-05T23:56:07.547Z,12.07
